Time;durP1;ratioP1;P1;durP2;ratioP2;P2;SDS_P1;SDS_P2;PMS_P1;PMS_P2;Temp;Humidity;BMP_temperature;BMP_pressure;BME280_temperature;BME280_humidity;BME280_pressure;Samples;Min_cycle;Max_cycle;Signal;HPM_P1;HPM_P2
2024/01/16 00:00:20;;;;;;;6.00;3.00;;;0.20;10.20;;;;;;5027020;28;20833;-68
2024/01/16 00:02:49;;;;;;;6.00;2.60;;;0.20;10.30;;;;;;5028642;28;20951;-68
2024/01/16 00:05:16;;;;;;;7.30;2.73;;;0.20;10.30;;;;;;5029022;28;20550;-68
2024/01/16 00:07:43;;;;;;;6.10;2.80;;;0.20;10.20;;;;;;5020555;28;21042;-68
2024/01/16 00:10:10;;;;;;;7.37;2.93;;;0.20;10.20;;;;;;5027580;28;20459;-68
2024/01/16 00:12:37;;;;;;;8.60;3.80;;;0.20;10.30;;;;;;5025243;28;20466;-69
2024/01/16 00:15:05;;;;;;;7.63;2.77;;;0.20;10.40;;;;;;5025612;28;20487;-68
2024/01/16 00:17:32;;;;;;;6.10;3.33;;;0.10;10.50;;;;;;5026902;28;21317;-68
2024/01/16 00:20:00;;;;;;;5.80;2.93;;;0.10;10.50;;;;;;5025675;28;20451;-68
2024/01/16 00:22:27;;;;;;;5.97;2.57;;;0.10;10.60;;;;;;5031435;28;20470;-68
2024/01/16 00:24:54;;;;;;;6.60;3.63;;;0.00;10.40;;;;;;5030035;28;20533;-68
2024/01/16 00:27:21;;;;;;;7.77;3.33;;;0.00;10.50;;;;;;5028105;28;21044;-68
2024/01/16 00:29:48;;;;;;;6.50;3.03;;;0.00;10.50;;;;;;5031812;28;20473;-68
2024/01/16 00:32:16;;;;;;;6.47;2.80;;;-0.10;10.50;;;;;;5027359;28;21562;-68
2024/01/16 00:34:43;;;;;;;5.67;3.30;;;-0.10;10.50;;;;;;5026961;28;20486;-68
2024/01/16 00:37:11;;;;;;;6.30;3.07;;;-0.10;10.60;;;;;;5028216;28;20493;-68
2024/01/16 00:39:38;;;;;;;7.20;3.40;;;-0.20;10.50;;;;;;5027051;28;20463;-68
2024/01/16 00:42:06;;;;;;;5.53;2.47;;;-0.20;10.60;;;;;;5026799;28;20473;-68
2024/01/16 00:44:34;;;;;;;8.90;3.70;;;-0.30;10.70;;;;;;5025853;28;21092;-68
2024/01/16 00:47:02;;;;;;;7.07;3.60;;;-0.30;10.70;;;;;;5025147;28;21141;-68
2024/01/16 00:49:29;;;;;;;7.40;3.00;;;-0.40;10.70;;;;;;5026952;28;20459;-68
2024/01/16 00:51:56;;;;;;;7.33;2.93;;;-0.40;10.80;;;;;;5027933;28;20473;-68
2024/01/16 00:54:24;;;;;;;6.70;3.07;;;-0.40;10.80;;;;;;5026131;28;20470;-68
2024/01/16 00:56:55;;;;;;;7.90;3.33;;;-0.40;10.80;;;;;;5024645;28;20998;-68
2024/01/16 00:59:22;;;;;;;6.83;2.77;;;-0.50;10.80;;;;;;5026347;28;20922;-68
2024/01/16 01:01:49;;;;;;;8.50;4.83;;;-0.60;10.90;;;;;;5026536;28;20478;-68
2024/01/16 01:04:15;;;;;;;7.17;3.37;;;-0.60;10.90;;;;;;5027770;28;20455;-68
2024/01/16 01:06:42;;;;;;;5.97;3.03;;;-0.60;10.90;;;;;;5026775;28;20482;-68
2024/01/16 01:09:11;;;;;;;8.73;3.33;;;-0.70;11.00;;;;;;5025431;28;20469;-68
2024/01/16 01:11:39;;;;;;;7.13;3.53;;;-0.70;11.00;;;;;;5027982;28;20470;-68
2024/01/16 01:14:06;;;;;;;8.67;3.47;;;-0.70;11.10;;;;;;5026740;28;20497;-68
2024/01/16 01:16:33;;;;;;;9.80;5.27;;;-0.70;11.10;;;;;;5025674;28;20479;-68
2024/01/16 01:19:00;;;;;;;6.87;3.03;;;-0.70;11.10;;;;;;5027222;28;20506;-68
2024/01/16 01:21:27;;;;;;;8.03;3.80;;;-0.70;11.20;;;;;;5026831;28;20767;-68
2024/01/16 01:23:54;;;;;;;7.30;3.13;;;-0.80;11.10;;;;;;5030934;28;20469;-68
2024/01/16 01:26:21;;;;;;;7.73;3.70;;;-0.80;11.20;;;;;;5025763;28;20477;-69
2024/01/16 01:28:49;;;;;;;14.23;4.23;;;-0.80;11.20;;;;;;5026165;28;20459;-68
2024/01/16 01:31:16;;;;;;;9.33;3.53;;;-0.90;11.30;;;;;;5028752;28;20483;-68
2024/01/16 01:33:43;;;;;;;8.20;3.30;;;-0.90;11.30;;;;;;5026991;28;20469;-68
2024/01/16 01:36:10;;;;;;;11.10;3.57;;;-0.90;11.40;;;;;;5026813;28;20479;-68
2024/01/16 01:38:37;;;;;;;6.90;3.80;;;-0.90;11.40;;;;;;5024444;28;20583;-68
2024/01/16 01:41:05;;;;;;;6.83;3.63;;;-0.90;11.90;;;;;;5024324;28;20467;-68
2024/01/16 01:43:32;;;;;;;7.47;3.40;;;-0.90;11.40;;;;;;5025677;28;20462;-68
2024/01/16 01:46:11;;;;;;;6.00;2.97;;;-0.90;11.30;;;;;;5025026;28;20467;-68
2024/01/16 01:48:38;;;;;;;6.37;3.23;;;-0.90;11.40;;;;;;5023943;28;20521;-68
2024/01/16 01:51:06;;;;;;;8.07;3.67;;;-0.90;11.40;;;;;;5022642;28;20550;-68
2024/01/16 01:53:34;;;;;;;6.63;3.10;;;-1.00;11.40;;;;;;5025128;28;20471;-68
2024/01/16 01:56:05;;;;;;;6.30;2.90;;;-1.00;11.50;;;;;;5022811;28;20485;-68
2024/01/16 01:58:33;;;;;;;7.80;4.00;;;-1.00;11.50;;;;;;5026206;28;20463;-68
2024/01/16 02:01:00;;;;;;;7.00;4.10;;;-1.00;11.50;;;;;;5025514;28;20473;-68
2024/01/16 02:03:33;;;;;;;5.67;2.80;;;-1.00;11.50;;;;;;5026425;28;20916;-67
2024/01/16 02:06:01;;;;;;;9.13;3.10;;;-1.00;11.50;;;;;;5026469;28;20461;-68
2024/01/16 02:08:28;;;;;;;7.07;3.50;;;-1.00;11.60;;;;;;5026641;28;20475;-68
2024/01/16 02:10:55;;;;;;;7.90;3.10;;;-1.10;11.60;;;;;;5027693;28;20459;-68
2024/01/16 02:13:23;;;;;;;6.87;3.00;;;-1.20;11.60;;;;;;5025564;28;20513;-69
2024/01/16 02:15:50;;;;;;;9.20;3.63;;;-1.20;11.60;;;;;;5021489;28;20497;-68
2024/01/16 02:18:17;;;;;;;7.17;3.43;;;-1.20;11.60;;;;;;5025902;28;20489;-68
2024/01/16 02:20:47;;;;;;;9.57;3.60;;;-1.30;11.70;;;;;;5023859;28;20557;-68
2024/01/16 02:23:15;;;;;;;6.80;3.23;;;-1.30;11.80;;;;;;5024761;28;20463;-68
2024/01/16 02:25:44;;;;;;;13.23;3.80;;;-1.30;11.80;;;;;;5024703;28;20457;-68
2024/01/16 02:28:11;;;;;;;9.03;3.67;;;-1.30;11.80;;;;;;5026394;28;20478;-68
2024/01/16 02:30:41;;;;;;;10.37;3.87;;;-1.40;11.80;;;;;;5022260;28;20546;-68
2024/01/16 02:33:08;;;;;;;7.27;3.57;;;-1.40;11.80;;;;;;5026420;28;20458;-68
2024/01/16 02:35:35;;;;;;;5.97;3.50;;;-1.50;11.90;;;;;;5024828;28;20838;-68
2024/01/16 02:38:01;;;;;;;8.73;3.80;;;-1.50;12.00;;;;;;5026701;28;20475;-68
2024/01/16 02:40:28;;;;;;;7.50;4.20;;;-1.60;11.90;;;;;;5025127;28;20475;-68
2024/01/16 02:42:56;;;;;;;6.30;2.97;;;-1.60;12.00;;;;;;5025180;28;20978;-68
2024/01/16 02:45:23;;;;;;;7.87;3.63;;;-1.60;12.10;;;;;;5026163;28;20521;-68
2024/01/16 02:47:50;;;;;;;6.13;3.00;;;-1.60;12.20;;;;;;5024791;28;20825;-68
2024/01/16 02:50:17;;;;;;;8.90;5.80;;;-1.70;12.30;;;;;;5022913;28;20993;-68
2024/01/16 02:52:44;;;;;;;9.40;3.23;;;-1.60;12.30;;;;;;5026139;28;20975;-68
2024/01/16 02:55:11;;;;;;;7.37;4.10;;;-1.70;12.20;;;;;;5025801;28;20485;-68
2024/01/16 02:57:37;;;;;;;6.07;2.97;;;-1.70;12.20;;;;;;5025301;28;20487;-68
2024/01/16 03:00:07;;;;;;;6.00;2.90;;;-1.60;12.10;;;;;;5026923;28;20579;-68
2024/01/16 03:02:34;;;;;;;6.30;3.70;;;-1.70;12.10;;;;;;5028061;28;20475;-68
2024/01/16 03:05:04;;;;;;;7.40;3.07;;;-1.60;12.00;;;;;;5029018;28;20469;-68
2024/01/16 03:07:31;;;;;;;6.30;3.00;;;-1.70;12.10;;;;;;5027347;28;20943;-68
2024/01/16 03:09:58;;;;;;;10.03;3.13;;;-1.70;12.10;;;;;;5027908;28;20469;-68
2024/01/16 03:12:25;;;;;;;15.83;3.67;;;-1.70;12.10;;;;;;5024982;28;20467;-68
2024/01/16 03:14:53;;;;;;;9.20;4.23;;;-1.70;12.10;;;;;;5025505;28;20463;-68
2024/01/16 03:17:21;;;;;;;5.80;2.70;;;-1.80;11.90;;;;;;5028486;28;21063;-68
2024/01/16 03:19:48;;;;;;;6.60;3.03;;;-1.80;11.90;;;;;;5028091;28;20467;-68
2024/01/16 03:22:15;;;;;;;11.00;3.60;;;-1.80;11.90;;;;;;5029167;28;20477;-68
2024/01/16 03:24:41;;;;;;;6.57;3.27;;;-1.80;11.90;;;;;;5024173;28;20469;-68
2024/01/16 03:27:08;;;;;;;8.87;3.00;;;-1.80;11.90;;;;;;5028252;28;20570;-68
2024/01/16 03:29:35;;;;;;;8.47;3.40;;;-1.90;12.00;;;;;;5027320;28;20558;-68
2024/01/16 03:32:02;;;;;;;6.10;2.80;;;-1.90;12.00;;;;;;5024529;28;20568;-68
2024/01/16 03:34:31;;;;;;;8.47;3.37;;;-1.90;11.90;;;;;;5026111;28;20459;-68
2024/01/16 03:36:58;;;;;;;5.50;2.73;;;-1.90;12.20;;;;;;5027386;28;20491;-69
2024/01/16 03:39:25;;;;;;;7.07;3.30;;;-1.90;12.10;;;;;;5026708;28;21171;-68
2024/01/16 03:41:52;;;;;;;6.03;2.87;;;-1.90;12.10;;;;;;5027748;28;20463;-68
2024/01/16 03:44:19;;;;;;;6.27;2.87;;;-1.90;12.20;;;;;;5025321;28;21498;-68
2024/01/16 03:46:45;;;;;;;7.00;3.23;;;-2.00;12.10;;;;;;5028931;28;20853;-67
2024/01/16 03:49:12;;;;;;;8.50;3.10;;;-2.00;12.10;;;;;;5023633;28;20494;-68
2024/01/16 03:51:42;;;;;;;9.13;3.47;;;-2.00;12.00;;;;;;5023843;28;20463;-67
2024/01/16 03:54:09;;;;;;;7.20;3.00;;;-2.00;12.20;;;;;;5025628;28;20966;-67
2024/01/16 03:56:36;;;;;;;8.00;3.67;;;-2.00;12.00;;;;;;5027566;28;20998;-68
2024/01/16 03:59:03;;;;;;;7.00;3.60;;;-2.00;11.90;;;;;;5026173;28;20462;-68
2024/01/16 04:01:36;;;;;;;6.47;3.00;;;-2.00;12.00;;;;;;5023217;28;20550;-67
2024/01/16 04:04:02;;;;;;;8.50;3.50;;;-2.10;12.10;;;;;;5023407;28;20521;-68
2024/01/16 04:06:30;;;;;;;6.50;3.40;;;-2.10;12.00;;;;;;5026696;28;20486;-68
2024/01/16 04:08:58;;;;;;;6.70;2.60;;;-2.10;11.90;;;;;;5026641;28;20485;-68
2024/01/16 04:11:25;;;;;;;8.20;3.30;;;-2.10;11.90;;;;;;5027998;28;20817;-68
2024/01/16 04:13:52;;;;;;;6.87;3.37;;;-2.10;11.90;;;;;;5023147;28;20468;-68
2024/01/16 04:16:19;;;;;;;7.47;3.10;;;-2.10;12.00;;;;;;5025500;28;20486;-68
2024/01/16 04:18:46;;;;;;;8.13;2.43;;;-2.10;11.90;;;;;;5027951;28;20469;-68
2024/01/16 04:21:13;;;;;;;6.40;2.80;;;-2.10;11.90;;;;;;5027406;28;21070;-68
2024/01/16 04:23:40;;;;;;;7.00;3.67;;;-2.10;11.90;;;;;;5027625;28;20463;-68
2024/01/16 04:26:09;;;;;;;5.77;2.40;;;-2.20;11.90;;;;;;5025955;28;20462;-68
2024/01/16 04:28:37;;;;;;;7.20;2.63;;;-2.20;11.90;;;;;;5026296;28;20943;-68
2024/01/16 04:31:04;;;;;;;6.90;2.93;;;-2.20;11.90;;;;;;5024408;28;20561;-68
2024/01/16 04:33:30;;;;;;;9.73;3.17;;;-2.10;12.00;;;;;;5023903;28;20542;-68
2024/01/16 04:35:57;;;;;;;7.50;3.27;;;-2.20;11.90;;;;;;5028444;28;20588;-68
2024/01/16 04:38:24;;;;;;;5.63;2.33;;;-2.20;12.50;;;;;;5026425;28;20487;-68
2024/01/16 04:40:51;;;;;;;7.20;3.00;;;-2.20;12.00;;;;;;5029455;28;20477;-68
2024/01/16 04:43:19;;;;;;;6.33;3.00;;;-2.20;12.00;;;;;;5030320;28;20466;-67
2024/01/16 04:45:46;;;;;;;7.23;3.47;;;-2.20;12.00;;;;;;5023437;28;20466;-67
2024/01/16 04:48:13;;;;;;;5.70;2.63;;;-2.20;12.00;;;;;;5023657;28;20479;-68
2024/01/16 04:50:40;;;;;;;8.23;3.43;;;-2.20;12.00;;;;;;5027481;28;20466;-68
2024/01/16 04:53:07;;;;;;;6.67;2.60;;;-2.20;11.90;;;;;;5027699;28;20967;-68
2024/01/16 04:55:33;;;;;;;5.77;2.40;;;-2.20;11.90;;;;;;5024496;28;20546;-69
2024/01/16 04:58:00;;;;;;;7.60;3.17;;;-2.20;12.00;;;;;;5023368;28;20498;-70
2024/01/16 05:00:28;;;;;;;5.93;2.90;;;-2.20;11.90;;;;;;5025159;28;20973;-68
2024/01/16 05:02:55;;;;;;;6.70;2.90;;;-2.30;11.90;;;;;;5026418;28;20467;-68
2024/01/16 05:05:22;;;;;;;6.93;3.53;;;-2.30;12.00;;;;;;5024181;28;21114;-69
2024/01/16 05:07:49;;;;;;;6.93;3.33;;;-2.30;12.00;;;;;;5026786;28;20600;-68
2024/01/16 05:10:16;;;;;;;7.40;2.73;;;-2.30;12.60;;;;;;5029440;28;20459;-67
2024/01/16 05:12:43;;;;;;;7.10;3.57;;;-2.30;12.10;;;;;;5025491;28;20458;-68
2024/01/16 05:15:11;;;;;;;7.70;3.37;;;-2.30;12.10;;;;;;5025657;28;20470;-68
2024/01/16 05:17:39;;;;;;;8.10;3.80;;;-2.30;12.10;;;;;;5026912;28;21062;-68
2024/01/16 05:20:08;;;;;;;9.67;3.73;;;-2.30;12.10;;;;;;5024489;28;20467;-68
2024/01/16 05:22:34;;;;;;;6.93;2.70;;;-2.20;12.10;;;;;;5024581;28;20952;-68
2024/01/16 05:25:01;;;;;;;8.60;4.30;;;-2.20;12.00;;;;;;5029671;28;20948;-68
2024/01/16 05:27:28;;;;;;;5.30;2.57;;;-2.20;12.00;;;;;;5026888;28;20482;-68
2024/01/16 05:29:55;;;;;;;9.73;4.03;;;-2.20;12.00;;;;;;5027770;28;20494;-68
2024/01/16 05:32:22;;;;;;;8.60;4.17;;;-2.20;12.00;;;;;;5025295;28;20473;-68
2024/01/16 05:34:50;;;;;;;8.57;3.17;;;-2.20;11.90;;;;;;5029248;28;20465;-69
2024/01/16 05:37:17;;;;;;;8.23;3.47;;;-2.30;12.00;;;;;;5035457;28;20493;-68
2024/01/16 05:39:44;;;;;;;6.97;3.20;;;-2.30;12.00;;;;;;5022698;28;20473;-68
2024/01/16 05:42:11;;;;;;;6.20;3.13;;;-2.30;12.10;;;;;;5027560;28;20469;-69
2024/01/16 05:44:38;;;;;;;7.17;3.23;;;-2.30;12.00;;;;;;5026200;28;20470;-69
2024/01/16 05:47:05;;;;;;;7.53;3.70;;;-2.30;12.10;;;;;;5026929;28;20475;-70
2024/01/16 05:49:32;;;;;;;9.37;3.67;;;-2.20;12.10;;;;;;5025310;28;20973;-69
2024/01/16 05:52:01;;;;;;;6.37;3.50;;;-2.30;12.10;;;;;;5026973;28;20839;-69
2024/01/16 05:54:28;;;;;;;6.67;3.47;;;-2.30;12.10;;;;;;5029038;28;20501;-69
2024/01/16 05:56:55;;;;;;;7.53;3.17;;;-2.30;12.10;;;;;;5025404;28;21044;-68
2024/01/16 05:59:22;;;;;;;10.67;4.07;;;-2.40;12.10;;;;;;5029775;28;20462;-69
2024/01/16 06:01:50;;;;;;;7.37;3.50;;;-2.40;12.10;;;;;;5025488;28;20479;-69
2024/01/16 06:04:17;;;;;;;6.90;3.10;;;-2.30;12.10;;;;;;5024710;28;20900;-68
2024/01/16 06:06:46;;;;;;;6.47;3.10;;;-2.30;12.10;;;;;;5026834;28;20483;-70
2024/01/16 06:09:15;;;;;;;6.73;3.27;;;-2.30;12.10;;;;;;5029045;28;20489;-71
2024/01/16 06:11:42;;;;;;;6.60;3.17;;;-2.30;12.10;;;;;;5025627;28;20455;-71
2024/01/16 06:14:09;;;;;;;9.57;3.63;;;-2.30;12.10;;;;;;5025968;28;20458;-71
2024/01/16 06:16:36;;;;;;;8.20;3.30;;;-2.30;12.10;;;;;;5025097;28;21007;-71
2024/01/16 06:19:04;;;;;;;7.37;3.43;;;-2.20;12.10;;;;;;5029512;28;20470;-71
2024/01/16 06:21:31;;;;;;;6.30;3.10;;;-2.20;12.00;;;;;;5029096;28;20498;-70
2024/01/16 06:23:58;;;;;;;7.50;3.70;;;-2.20;12.00;;;;;;5026464;28;20553;-69
2024/01/16 06:26:26;;;;;;;9.77;3.63;;;-2.20;11.90;;;;;;5027193;28;20503;-69
2024/01/16 06:28:53;;;;;;;8.10;3.33;;;-2.20;11.90;;;;;;5032439;28;20502;-69
2024/01/16 06:31:20;;;;;;;6.70;3.23;;;-2.20;11.90;;;;;;5027562;28;20467;-69
2024/01/16 06:33:47;;;;;;;6.23;2.87;;;-2.20;11.90;;;;;;5030294;28;20522;-69
2024/01/16 06:36:13;;;;;;;8.10;3.63;;;-2.20;11.80;;;;;;5031353;28;20466;-69
2024/01/16 06:38:40;;;;;;;10.43;3.17;;;-2.20;11.80;;;;;;5030038;28;20550;-68
2024/01/16 06:41:07;;;;;;;9.07;3.77;;;-2.20;11.90;;;;;;5030205;28;21020;-69
2024/01/16 06:43:36;;;;;;;7.10;3.87;;;-2.30;11.90;;;;;;5029022;28;20554;-68
2024/01/16 06:46:03;;;;;;;9.00;3.17;;;-2.20;11.90;;;;;;5031891;28;20497;-69
2024/01/16 06:48:30;;;;;;;8.80;3.93;;;-2.20;11.90;;;;;;5030882;28;20455;-69
2024/01/16 06:50:57;;;;;;;6.50;3.10;;;-2.20;12.00;;;;;;5025950;28;20546;-69
2024/01/16 06:53:24;;;;;;;7.20;3.23;;;-2.20;12.00;;;;;;5028625;28;20498;-69
2024/01/16 06:55:52;;;;;;;10.87;3.30;;;-2.20;11.90;;;;;;5031297;28;20830;-69
2024/01/16 06:58:19;;;;;;;8.40;3.63;;;-2.10;12.10;;;;;;5028090;28;20594;-69
2024/01/16 07:00:47;;;;;;;7.20;3.30;;;-2.10;11.90;;;;;;5032759;28;20997;-69
2024/01/16 07:03:14;;;;;;;8.90;3.20;;;-2.10;11.90;;;;;;5030559;28;20455;-68
2024/01/16 07:05:42;;;;;;;8.23;3.60;;;-2.10;12.00;;;;;;5029334;28;20955;-69
2024/01/16 07:08:09;;;;;;;9.50;4.20;;;-2.10;12.00;;;;;;5031554;28;20506;-71
2024/01/16 07:10:36;;;;;;;7.53;3.63;;;-2.10;12.00;;;;;;5026543;28;20462;-71
2024/01/16 07:13:03;;;;;;;10.27;3.60;;;-2.10;12.00;;;;;;5030801;28;20455;-69
2024/01/16 07:15:30;;;;;;;9.27;5.13;;;-2.00;11.90;;;;;;5027593;28;20461;-71
2024/01/16 07:17:58;;;;;;;8.93;4.00;;;-2.00;11.90;;;;;;5029753;28;20490;-69
2024/01/16 07:20:25;;;;;;;8.43;3.97;;;-2.00;11.90;;;;;;5031037;28;20471;-70
2024/01/16 07:22:52;;;;;;;8.57;4.07;;;-1.90;12.00;;;;;;5031306;28;20463;-70
2024/01/16 07:25:19;;;;;;;9.37;4.80;;;-1.90;12.50;;;;;;5028352;28;20829;-70
2024/01/16 07:27:49;;;;;;;10.57;5.40;;;-1.90;12.00;;;;;;5030602;28;20474;-70
2024/01/16 07:30:16;;;;;;;12.47;5.87;;;-1.90;12.00;;;;;;5029683;28;20466;-70
2024/01/16 07:32:43;;;;;;;15.10;6.13;;;-1.80;12.00;;;;;;5029942;28;20451;-70
2024/01/16 07:35:11;;;;;;;11.07;5.63;;;-1.80;12.00;;;;;;5026747;28;21006;-70
2024/01/16 07:37:38;;;;;;;11.70;6.67;;;-1.80;12.00;;;;;;5030376;28;20848;-70
2024/01/16 07:40:06;;;;;;;12.33;6.20;;;-1.80;12.10;;;;;;5022050;28;20469;-70
2024/01/16 07:42:34;;;;;;;12.80;6.27;;;-1.80;12.00;;;;;;5030053;28;20817;-71
2024/01/16 07:45:04;;;;;;;11.80;6.43;;;-1.70;12.10;;;;;;5029369;28;20463;-70
2024/01/16 07:47:31;;;;;;;21.60;8.00;;;-1.70;12.10;;;;;;5029783;28;20475;-70
2024/01/16 07:49:58;;;;;;;11.97;5.93;;;-1.70;12.00;;;;;;5039631;28;20490;-70
2024/01/16 07:52:26;;;;;;;12.17;5.33;;;-1.60;12.00;;;;;;5035165;28;20474;-70
2024/01/16 07:54:53;;;;;;;10.10;4.90;;;-1.60;12.00;;;;;;5028961;28;20460;-69
2024/01/16 07:57:20;;;;;;;13.50;4.90;;;-1.50;12.00;;;;;;5028581;28;20501;-70
2024/01/16 07:59:47;;;;;;;9.83;4.20;;;-1.50;12.00;;;;;;5028026;28;20829;-72
2024/01/16 08:02:14;;;;;;;11.83;5.00;;;-1.50;12.00;;;;;;5028915;28;20463;-73
2024/01/16 08:04:41;;;;;;;13.93;8.47;;;-1.40;11.90;;;;;;5029703;28;20465;-72
2024/01/16 08:07:08;;;;;;;15.63;7.63;;;-1.40;11.80;;;;;;5023066;28;20475;-70
2024/01/16 08:09:36;;;;;;;13.30;7.87;;;-1.40;11.70;;;;;;5029056;28;20553;-70
2024/01/16 08:12:03;;;;;;;11.80;6.30;;;-1.30;11.60;;;;;;5031810;28;20469;-71
2024/01/16 08:14:30;;;;;;;20.23;8.83;;;-1.20;11.60;;;;;;5029305;28;20521;-69
2024/01/16 08:16:57;;;;;;;13.83;8.47;;;-1.20;11.50;;;;;;5028494;28;20882;-70
2024/01/16 08:19:24;;;;;;;15.77;9.63;;;-1.20;11.40;;;;;;5031952;28;20461;-71
2024/01/16 08:21:51;;;;;;;19.30;10.53;;;-1.10;11.30;;;;;;5029896;28;20529;-70
2024/01/16 08:24:18;;;;;;;20.10;10.20;;;-1.00;11.20;;;;;;5030975;28;20469;-71
2024/01/16 08:26:46;;;;;;;12.63;7.77;;;-1.00;11.10;;;;;;5029211;28;21082;-70
2024/01/16 08:29:13;;;;;;;11.40;7.33;;;-0.90;11.10;;;;;;5029764;28;20509;-70
2024/01/16 08:31:40;;;;;;;10.33;5.40;;;-0.80;10.90;;;;;;5028237;28;20470;-70
2024/01/16 08:34:06;;;;;;;18.03;9.03;;;-0.80;10.80;;;;;;5024259;28;20583;-70
2024/01/16 08:36:33;;;;;;;34.50;19.80;;;-0.70;10.80;;;;;;5031442;28;21003;-70
2024/01/16 08:39:00;;;;;;;31.30;19.17;;;-0.60;10.60;;;;;;5029168;28;20489;-70
2024/01/16 08:41:27;;;;;;;37.00;23.90;;;-0.50;10.50;;;;;;5029787;28;20485;-72
2024/01/16 08:43:56;;;;;;;37.80;23.90;;;-0.50;10.30;;;;;;5027722;28;20458;-73
2024/01/16 08:46:23;;;;;;;19.77;11.97;;;-0.40;10.20;;;;;;5030349;28;20463;-72
2024/01/16 08:48:49;;;;;;;15.80;10.03;;;-0.30;10.10;;;;;;5024062;28;20558;-72
2024/01/16 08:51:16;;;;;;;12.63;8.33;;;-0.30;9.80;;;;;;5027384;28;21029;-73
2024/01/16 08:53:43;;;;;;;14.30;8.13;;;-0.20;9.60;;;;;;5028632;28;21005;-70
2024/01/16 08:56:12;;;;;;;13.97;7.67;;;-0.20;9.50;;;;;;5026952;28;20480;-72
2024/01/16 08:58:40;;;;;;;13.13;7.10;;;-0.10;9.50;;;;;;5028867;28;20483;-72
2024/01/16 09:01:10;;;;;;;11.83;6.90;;;0.00;9.40;;;;;;5027406;28;20827;-71
2024/01/16 09:03:37;;;;;;;12.43;7.10;;;0.00;9.20;;;;;;5030130;28;20459;-72
2024/01/16 09:06:04;;;;;;;11.03;7.33;;;0.10;9.10;;;;;;5026301;28;20463;-69
2024/01/16 09:08:31;;;;;;;9.30;6.30;;;0.30;9.10;;;;;;5024496;28;20547;-71
2024/01/16 09:10:58;;;;;;;14.27;7.77;;;0.30;8.90;;;;;;5023878;28;20484;-70
2024/01/16 09:13:25;;;;;;;14.10;6.70;;;0.40;8.70;;;;;;5026058;28;20535;-71
2024/01/16 09:15:52;;;;;;;11.90;6.90;;;0.50;8.60;;;;;;5025417;28;20582;-71
2024/01/16 09:18:20;;;;;;;9.70;5.80;;;0.60;8.40;;;;;;5025078;28;20475;-71
2024/01/16 09:20:48;;;;;;;11.23;6.40;;;0.70;8.40;;;;;;5020479;28;20967;-70
2024/01/16 09:23:15;;;;;;;13.43;6.10;;;0.70;8.10;;;;;;5020575;28;20463;-70
2024/01/16 09:25:42;;;;;;;18.07;6.40;;;0.70;7.90;;;;;;5027108;28;20466;-70
2024/01/16 09:28:08;;;;;;;12.60;5.87;;;0.70;7.80;;;;;;5022328;28;20487;-70
2024/01/16 09:30:35;;;;;;;10.07;5.40;;;0.80;7.80;;;;;;5026205;28;20459;-71
2024/01/16 09:33:04;;;;;;;10.37;5.50;;;0.90;7.70;;;;;;5023805;28;20574;-70
2024/01/16 09:35:32;;;;;;;9.10;5.27;;;0.90;7.40;;;;;;5027875;28;20473;-70
2024/01/16 09:37:59;;;;;;;11.90;5.70;;;1.00;7.40;;;;;;5025706;28;20483;-70
2024/01/16 09:40:27;;;;;;;13.30;7.20;;;1.10;7.40;;;;;;5023225;28;21261;-70
2024/01/16 09:42:53;;;;;;;11.77;5.97;;;1.40;7.30;;;;;;5026144;28;20655;-69
2024/01/16 09:45:22;;;;;;;13.00;4.90;;;1.60;6.70;;;;;;5023866;28;20455;-70
2024/01/16 09:47:51;;;;;;;8.40;5.27;;;1.70;6.40;;;;;;5027196;28;20481;-71
2024/01/16 09:50:19;;;;;;;12.70;5.40;;;1.90;6.40;;;;;;5024198;28;20462;-71
2024/01/16 09:52:48;;;;;;;7.10;4.00;;;2.10;6.30;;;;;;5025066;28;20859;-71
2024/01/16 09:55:15;;;;;;;7.57;4.20;;;2.30;6.00;;;;;;5023596;28;20469;-70
2024/01/16 09:57:45;;;;;;;8.47;4.50;;;2.40;5.50;;;;;;5027479;28;20609;-72
2024/01/16 10:00:13;;;;;;;11.67;5.10;;;2.40;5.10;;;;;;5022621;28;20832;-72
2024/01/16 10:02:41;;;;;;;13.40;4.73;;;2.50;4.90;;;;;;5027321;28;20549;-72
2024/01/16 10:05:09;;;;;;;8.20;4.60;;;2.60;4.60;;;;;;5026733;28;20462;-72
2024/01/16 10:07:38;;;;;;;9.97;5.10;;;2.70;4.20;;;;;;5028197;28;20478;-72
2024/01/16 10:10:08;;;;;;;10.70;5.90;;;2.90;4.10;;;;;;5029514;28;20470;-72
2024/01/16 10:12:35;;;;;;;13.87;6.50;;;3.10;3.60;;;;;;5029636;28;20456;-72
2024/01/16 10:15:02;;;;;;;10.67;5.77;;;3.20;3.10;;;;;;5030731;28;20962;-72
2024/01/16 10:17:41;;;;;;;20.50;6.73;;;3.40;2.60;;;;;;5030992;28;20482;-72
2024/01/16 10:20:13;;;;;;;16.43;6.40;;;3.50;2.40;;;;;;5028964;28;20552;-72
2024/01/16 10:22:40;;;;;;;14.53;6.50;;;3.70;2.30;;;;;;5030010;28;20462;-72
2024/01/16 10:25:11;;;;;;;10.43;5.33;;;3.70;1.80;;;;;;5029453;28;20465;-72
2024/01/16 10:27:40;;;;;;;13.80;6.70;;;3.80;1.30;;;;;;5025807;28;20489;-72
2024/01/16 10:30:08;;;;;;;29.07;15.93;;;4.00;1.30;;;;;;5031805;28;20454;-72
2024/01/16 10:32:37;;;;;;;20.40;9.57;;;4.10;1.40;;;;;;5026363;28;20481;-70
2024/01/16 10:35:08;;;;;;;14.27;6.10;;;4.20;1.50;;;;;;5028030;28;21008;-70
2024/01/16 10:37:48;;;;;;;10.23;5.53;;;4.30;1.10;;;;;;5030086;28;20482;-70
2024/01/16 10:40:19;;;;;;;8.23;4.30;;;4.40;1.00;;;;;;5029903;28;20458;-70
2024/01/16 10:42:47;;;;;;;12.00;5.20;;;4.50;1.00;;;;;;5027085;28;20459;-70
2024/01/16 10:45:19;;;;;;;9.27;4.40;;;4.50;1.00;;;;;;5029931;28;20475;-70
2024/01/16 10:47:47;;;;;;;14.07;8.97;;;4.60;1.00;;;;;;5031167;28;20546;-70
2024/01/16 10:50:14;;;;;;;9.17;4.47;;;4.70;1.00;;;;;;5029839;28;20549;-70
2024/01/16 10:52:49;;;;;;;7.83;4.40;;;4.80;1.00;;;;;;5040038;28;20542;-70
2024/01/16 10:55:22;;;;;;;8.60;4.40;;;4.80;1.00;;;;;;5030900;28;20463;-70
2024/01/16 10:57:50;;;;;;;8.47;4.83;;;4.90;1.00;;;;;;5031230;28;20475;-70
2024/01/16 11:00:19;;;;;;;7.77;4.40;;;5.00;1.00;;;;;;5025759;28;20471;-70
2024/01/16 11:02:52;;;;;;;11.40;5.10;;;5.10;1.00;;;;;;5025512;28;20458;-70
2024/01/16 11:05:21;;;;;;;8.50;4.07;;;5.30;1.00;;;;;;5030187;28;20542;-70
2024/01/16 11:07:48;;;;;;;7.83;4.37;;;5.40;1.00;;;;;;5026399;28;20475;-70
2024/01/16 11:10:16;;;;;;;9.67;4.80;;;5.50;1.00;;;;;;5029525;28;20486;-70
2024/01/16 11:12:46;;;;;;;9.63;4.33;;;5.90;1.00;;;;;;5023401;28;20945;-70
2024/01/16 11:15:13;;;;;;;11.40;4.40;;;6.10;1.00;;;;;;5029368;28;20451;-70
2024/01/16 11:17:44;;;;;;;8.67;4.60;;;6.30;1.00;;;;;;5028959;28;21022;-70
2024/01/16 11:20:14;;;;;;;8.37;4.90;;;6.40;1.00;;;;;;5028288;28;20854;-70
2024/01/16 11:22:43;;;;;;;13.13;5.67;;;6.30;1.00;;;;;;5030582;28;20459;-69
2024/01/16 11:25:10;;;;;;;12.20;4.90;;;6.30;1.00;;;;;;5027508;28;20467;-70
2024/01/16 11:27:38;;;;;;;9.43;4.53;;;6.30;1.00;;;;;;5028417;28;20531;-72
2024/01/16 11:30:08;;;;;;;10.00;4.23;;;6.30;1.00;;;;;;5027988;28;20474;-71
2024/01/16 11:32:37;;;;;;;13.07;5.70;;;6.20;1.00;;;;;;5030016;28;20674;-72
2024/01/16 11:35:04;;;;;;;13.13;5.60;;;6.20;1.00;;;;;;5030430;28;20497;-72
2024/01/16 11:37:33;;;;;;;8.73;5.50;;;6.30;1.00;;;;;;5026830;28;20582;-71
2024/01/16 11:40:26;;;;;;;11.97;5.50;;;6.70;1.00;;;;;;5029942;28;20570;-72
2024/01/16 11:42:54;;;;;;;9.03;4.90;;;7.00;1.00;;;;;;5029124;28;20462;-70
2024/01/16 11:45:53;;;;;;;14.30;5.70;;;7.00;1.00;;;;;;5029706;28;20498;-71
2024/01/16 11:48:20;;;;;;;19.53;6.50;;;6.90;1.00;;;;;;5027897;28;20915;-72
2024/01/16 11:50:47;;;;;;;21.83;9.83;;;6.70;1.00;;;;;;5026836;28;20455;-71
2024/01/16 11:53:40;;;;;;;13.73;5.90;;;6.70;1.00;;;;;;5027483;28;21015;-71
2024/01/16 11:56:26;;;;;;;12.60;4.87;;;7.70;1.00;;;;;;5029521;28;20462;-73
2024/01/16 11:59:09;;;;;;;9.40;4.70;;;8.50;1.00;;;;;;5026155;28;20486;-71
2024/01/16 12:01:39;;;;;;;15.73;6.10;;;9.00;1.00;;;;;;5026333;28;20459;-71
2024/01/16 12:04:06;;;;;;;11.50;5.17;;;9.00;1.00;;;;;;5027874;28;20455;-70
2024/01/16 12:06:34;;;;;;;8.70;4.97;;;8.90;1.00;;;;;;5024896;28;20477;-70
2024/01/16 12:09:14;;;;;;;11.23;4.83;;;9.20;1.00;;;;;;5022055;28;20837;-70
2024/01/16 12:11:43;;;;;;;10.80;5.57;;;9.60;1.00;;;;;;5029202;28;20505;-70
2024/01/16 12:14:10;;;;;;;8.77;5.50;;;9.20;1.00;;;;;;5027831;28;20542;-70
2024/01/16 12:16:39;;;;;;;11.50;5.80;;;8.90;1.00;;;;;;5028042;28;20917;-70
2024/01/16 12:19:07;;;;;;;11.53;5.10;;;9.20;1.00;;;;;;5025594;28;20597;-70
2024/01/16 12:21:36;;;;;;;7.47;4.63;;;9.30;1.00;;;;;;5027624;28;20487;-70
2024/01/16 12:24:03;;;;;;;12.37;5.73;;;9.60;1.00;;;;;;5028611;28;20546;-70
2024/01/16 12:26:31;;;;;;;8.73;4.73;;;10.20;1.00;;;;;;5025867;28;20483;-70
2024/01/16 12:28:58;;;;;;;9.10;4.77;;;10.90;1.00;;;;;;5028455;28;20478;-71
2024/01/16 12:31:25;;;;;;;8.17;4.37;;;11.30;1.00;;;;;;5028157;28;20510;-70
2024/01/16 12:33:54;;;;;;;9.30;4.73;;;11.40;1.00;;;;;;5025759;28;20463;-70
2024/01/16 12:36:21;;;;;;;8.70;4.20;;;11.50;1.00;;;;;;5022328;28;20473;-70
2024/01/16 12:38:56;;;;;;;6.93;4.10;;;11.50;1.00;;;;;;5027380;28;20522;-70
2024/01/16 12:41:24;;;;;;;6.60;3.10;;;11.40;1.00;;;;;;5025806;28;20467;-71
2024/01/16 12:43:52;;;;;;;5.47;2.70;;;11.40;1.00;;;;;;5028987;28;20462;-72
2024/01/16 12:46:19;;;;;;;8.17;3.50;;;11.20;1.00;;;;;;5024498;28;20584;-71
2024/01/16 12:48:47;;;;;;;5.20;2.40;;;10.80;1.00;;;;;;5027763;28;20459;-71
2024/01/16 12:51:23;;;;;;;5.40;1.90;;;10.70;1.00;;;;;;5028090;28;20554;-71
2024/01/16 12:53:50;;;;;;;5.67;2.20;;;10.90;1.00;;;;;;5020573;28;20463;-70